sensor_id;sensor_type;location;lat;lon;timestamp;P1;durP1;ratioP1;P2;durP2;ratioP2
23280;SDS011;11809;56.390;-3.266;2023-03-23T00:01:18;2.72;;;0.82;;
23280;SDS011;11809;56.390;-3.266;2023-03-23T00:03:47;3.08;;;1.10;;
23280;SDS011;11809;56.390;-3.266;2023-03-23T00:06:16;2.42;;;0.77;;
23280;SDS011;11809;56.390;-3.266;2023-03-23T00:08:48;2.30;;;0.80;;
23280;SDS011;11809;56.390;-3.266;2023-03-23T00:11:24;3.10;;;1.08;;
23280;SDS011;11809;56.390;-3.266;2023-03-23T00:13:56;2.30;;;0.85;;
23280;SDS011;11809;56.390;-3.266;2023-03-23T00:16:28;2.38;;;0.95;;
23280;SDS011;11809;56.390;-3.266;2023-03-23T00:19:04;2.53;;;0.70;;
23280;SDS011;11809;56.390;-3.266;2023-03-23T00:21:34;1.98;;;0.70;;
23280;SDS011;11809;56.390;-3.266;2023-03-23T00:24:10;4.90;;;0.88;;
23280;SDS011;11809;56.390;-3.266;2023-03-23T00:26:40;2.17;;;1.00;;
23280;SDS011;11809;56.390;-3.266;2023-03-23T00:29:15;1.88;;;0.82;;
23280;SDS011;11809;56.390;-3.266;2023-03-23T00:31:47;2.55;;;0.80;;
23280;SDS011;11809;56.390;-3.266;2023-03-23T00:34:19;2.00;;;0.80;;
23280;SDS011;11809;56.390;-3.266;2023-03-23T00:36:49;1.98;;;0.60;;
23280;SDS011;11809;56.390;-3.266;2023-03-23T00:39:19;1.48;;;0.73;;
23280;SDS011;11809;56.390;-3.266;2023-03-23T00:41:46;2.50;;;0.90;;
23280;SDS011;11809;56.390;-3.266;2023-03-23T00:44:14;1.33;;;0.70;;
23280;SDS011;11809;56.390;-3.266;2023-03-23T00:46:48;2.45;;;0.60;;
23280;SDS011;11809;56.390;-3.266;2023-03-23T00:49:17;1.58;;;0.70;;
23280;SDS011;11809;56.390;-3.266;2023-03-23T00:51:45;1.15;;;0.60;;
23280;SDS011;11809;56.390;-3.266;2023-03-23T00:54:12;2.03;;;0.60;;
23280;SDS011;11809;56.390;-3.266;2023-03-23T00:56:39;0.77;;;0.40;;
23280;SDS011;11809;56.390;-3.266;2023-03-23T00:59:06;1.83;;;0.70;;
23280;SDS011;11809;56.390;-3.266;2023-03-23T01:01:34;2.17;;;0.55;;
23280;SDS011;11809;56.390;-3.266;2023-03-23T01:04:02;1.63;;;0.50;;
23280;SDS011;11809;56.390;-3.266;2023-03-23T01:06:34;0.98;;;0.52;;
23280;SDS011;11809;56.390;-3.266;2023-03-23T01:09:06;0.60;;;0.40;;
23280;SDS011;11809;56.390;-3.266;2023-03-23T01:11:35;0.30;;;0.30;;
23280;SDS011;11809;56.390;-3.266;2023-03-23T01:14:02;2.92;;;0.30;;
23280;SDS011;11809;56.390;-3.266;2023-03-23T01:16:29;2.08;;;0.40;;
23280;SDS011;11809;56.390;-3.266;2023-03-23T01:18:56;0.90;;;0.38;;
23280;SDS011;11809;56.390;-3.266;2023-03-23T01:21:23;0.85;;;0.40;;
23280;SDS011;11809;56.390;-3.266;2023-03-23T01:23:51;1.55;;;0.40;;
23280;SDS011;11809;56.390;-3.266;2023-03-23T01:26:19;0.93;;;0.32;;
23280;SDS011;11809;56.390;-3.266;2023-03-23T01:28:48;0.60;;;0.40;;
23280;SDS011;11809;56.390;-3.266;2023-03-23T01:31:17;1.85;;;0.40;;
23280;SDS011;11809;56.390;-3.266;2023-03-23T01:33:46;0.65;;;0.40;;
23280;SDS011;11809;56.390;-3.266;2023-03-23T01:36:15;0.30;;;0.30;;
23280;SDS011;11809;56.390;-3.266;2023-03-23T01:38:44;0.65;;;0.32;;
23280;SDS011;11809;56.390;-3.266;2023-03-23T01:41:13;0.90;;;0.50;;
23280;SDS011;11809;56.390;-3.266;2023-03-23T01:49:04;0.52;;;0.30;;
23280;SDS011;11809;56.390;-3.266;2023-03-23T01:51:36;1.60;;;0.20;;
23280;SDS011;11809;56.390;-3.266;2023-03-23T01:54:08;0.80;;;0.30;;
23280;SDS011;11809;56.390;-3.266;2023-03-23T01:56:41;0.75;;;0.30;;
23280;SDS011;11809;56.390;-3.266;2023-03-23T01:59:17;4.15;;;0.35;;
23280;SDS011;11809;56.390;-3.266;2023-03-23T02:01:44;0.93;;;0.50;;
23280;SDS011;11809;56.390;-3.266;2023-03-23T02:04:13;0.63;;;0.35;;
23280;SDS011;11809;56.390;-3.266;2023-03-23T02:06:43;0.40;;;0.30;;
23280;SDS011;11809;56.390;-3.266;2023-03-23T02:09:11;0.30;;;0.30;;
23280;SDS011;11809;56.390;-3.266;2023-03-23T02:11:51;0.70;;;0.30;;
23280;SDS011;11809;56.390;-3.266;2023-03-23T02:14:20;1.02;;;0.40;;
23280;SDS011;11809;56.390;-3.266;2023-03-23T02:22:36;0.80;;;0.40;;
23280;SDS011;11809;56.390;-3.266;2023-03-23T02:34:00;0.30;;;0.30;;
23280;SDS011;11809;56.390;-3.266;2023-03-23T02:37:14;0.30;;;0.30;;
23280;SDS011;11809;56.390;-3.266;2023-03-23T02:39:33;0.38;;;0.30;;
23280;SDS011;11809;56.390;-3.266;2023-03-23T02:42:05;0.40;;;0.32;;
23280;SDS011;11809;56.390;-3.266;2023-03-23T02:44:41;0.55;;;0.43;;
23280;SDS011;11809;56.390;-3.266;2023-03-23T02:47:15;0.25;;;0.25;;
23280;SDS011;11809;56.390;-3.266;2023-03-23T02:49:46;1.20;;;0.30;;
23280;SDS011;11809;56.390;-3.266;2023-03-23T02:52:19;0.30;;;0.30;;
23280;SDS011;11809;56.390;-3.266;2023-03-23T02:54:51;1.02;;;0.30;;
23280;SDS011;11809;56.390;-3.266;2023-03-23T02:57:20;0.30;;;0.30;;
23280;SDS011;11809;56.390;-3.266;2023-03-23T03:00:07;0.73;;;0.47;;
23280;SDS011;11809;56.390;-3.266;2023-03-23T03:02:38;0.40;;;0.40;;
23280;SDS011;11809;56.390;-3.266;2023-03-23T03:13:32;0.43;;;0.30;;
23280;SDS011;11809;56.390;-3.266;2023-03-23T03:16:04;2.25;;;0.30;;
23280;SDS011;11809;56.390;-3.266;2023-03-23T03:18:38;0.30;;;0.30;;
23280;SDS011;11809;56.390;-3.266;2023-03-23T03:21:15;0.63;;;0.30;;
23280;SDS011;11809;56.390;-3.266;2023-03-23T03:23:47;0.50;;;0.47;;
23280;SDS011;11809;56.390;-3.266;2023-03-23T03:26:15;0.60;;;0.40;;
23280;SDS011;11809;56.390;-3.266;2023-03-23T03:28:44;0.82;;;0.30;;
23280;SDS011;11809;56.390;-3.266;2023-03-23T03:31:15;0.55;;;0.30;;
23280;SDS011;11809;56.390;-3.266;2023-03-23T03:33:45;0.40;;;0.40;;
23280;SDS011;11809;56.390;-3.266;2023-03-23T03:36:17;0.30;;;0.30;;
23280;SDS011;11809;56.390;-3.266;2023-03-23T03:38:48;0.85;;;0.50;;
23280;SDS011;11809;56.390;-3.266;2023-03-23T03:41:17;0.60;;;0.30;;
23280;SDS011;11809;56.390;-3.266;2023-03-23T03:43:45;0.38;;;0.32;;
23280;SDS011;11809;56.390;-3.266;2023-03-23T03:46:12;0.47;;;0.32;;
23280;SDS011;11809;56.390;-3.266;2023-03-23T03:48:39;0.50;;;0.32;;
23280;SDS011;11809;56.390;-3.266;2023-03-23T03:51:06;0.52;;;0.30;;
23280;SDS011;11809;56.390;-3.266;2023-03-23T03:53:35;0.35;;;0.20;;
23280;SDS011;11809;56.390;-3.266;2023-03-23T03:56:03;0.93;;;0.38;;
23280;SDS011;11809;56.390;-3.266;2023-03-23T03:58:31;0.30;;;0.30;;
23280;SDS011;11809;56.390;-3.266;2023-03-23T04:00:59;0.25;;;0.25;;
23280;SDS011;11809;56.390;-3.266;2023-03-23T04:03:26;0.30;;;0.30;;
23280;SDS011;11809;56.390;-3.266;2023-03-23T04:05:54;0.85;;;0.43;;
23280;SDS011;11809;56.390;-3.266;2023-03-23T04:08:24;0.60;;;0.20;;
23280;SDS011;11809;56.390;-3.266;2023-03-23T04:10:53;0.85;;;0.35;;
23280;SDS011;11809;56.390;-3.266;2023-03-23T04:13:20;0.50;;;0.30;;
23280;SDS011;11809;56.390;-3.266;2023-03-23T04:15:47;0.50;;;0.30;;
23280;SDS011;11809;56.390;-3.266;2023-03-23T04:18:35;0.30;;;0.30;;
23280;SDS011;11809;56.390;-3.266;2023-03-23T04:21:02;0.50;;;0.20;;
23280;SDS011;11809;56.390;-3.266;2023-03-23T04:23:30;0.63;;;0.40;;
23280;SDS011;11809;56.390;-3.266;2023-03-23T04:26:00;0.25;;;0.20;;
23280;SDS011;11809;56.390;-3.266;2023-03-23T04:28:28;0.65;;;0.30;;
23280;SDS011;11809;56.390;-3.266;2023-03-23T04:30:55;0.20;;;0.20;;
23280;SDS011;11809;56.390;-3.266;2023-03-23T04:33:23;0.55;;;0.30;;
23280;SDS011;11809;56.390;-3.266;2023-03-23T04:36:11;0.57;;;0.30;;
23280;SDS011;11809;56.390;-3.266;2023-03-23T04:38:42;0.20;;;0.20;;
23280;SDS011;11809;56.390;-3.266;2023-03-23T04:41:09;0.50;;;0.30;;
23280;SDS011;11809;56.390;-3.266;2023-03-23T04:43:36;0.57;;;0.30;;
23280;SDS011;11809;56.390;-3.266;2023-03-23T04:46:08;1.75;;;0.40;;
23280;SDS011;11809;56.390;-3.266;2023-03-23T04:48:35;0.52;;;0.43;;
23280;SDS011;11809;56.390;-3.266;2023-03-23T04:51:02;0.88;;;0.40;;
23280;SDS011;11809;56.390;-3.266;2023-03-23T04:53:30;0.50;;;0.32;;
23280;SDS011;11809;56.390;-3.266;2023-03-23T04:55:58;0.63;;;0.40;;
23280;SDS011;11809;56.390;-3.266;2023-03-23T04:58:27;0.80;;;0.22;;
23280;SDS011;11809;56.390;-3.266;2023-03-23T05:00:55;2.25;;;0.40;;
23280;SDS011;11809;56.390;-3.266;2023-03-23T05:03:22;0.45;;;0.32;;
23280;SDS011;11809;56.390;-3.266;2023-03-23T05:05:49;1.15;;;0.40;;
23280;SDS011;11809;56.390;-3.266;2023-03-23T05:08:20;2.70;;;0.40;;
23280;SDS011;11809;56.390;-3.266;2023-03-23T05:10:52;0.70;;;0.30;;
23280;SDS011;11809;56.390;-3.266;2023-03-23T05:13:21;1.25;;;0.30;;
23280;SDS011;11809;56.390;-3.266;2023-03-23T05:15:48;0.90;;;0.40;;
23280;SDS011;11809;56.390;-3.266;2023-03-23T05:18:15;0.40;;;0.40;;
23280;SDS011;11809;56.390;-3.266;2023-03-23T05:20:43;0.47;;;0.30;;
23280;SDS011;11809;56.390;-3.266;2023-03-23T05:23:12;0.63;;;0.38;;
23280;SDS011;11809;56.390;-3.266;2023-03-23T05:25:39;0.65;;;0.30;;
23280;SDS011;11809;56.390;-3.266;2023-03-23T05:28:08;1.67;;;0.40;;
23280;SDS011;11809;56.390;-3.266;2023-03-23T05:30:37;0.60;;;0.40;;
23280;SDS011;11809;56.390;-3.266;2023-03-23T05:33:05;0.60;;;0.40;;
23280;SDS011;11809;56.390;-3.266;2023-03-23T05:35:32;0.77;;;0.25;;
23280;SDS011;11809;56.390;-3.266;2023-03-23T05:38:00;0.63;;;0.30;;
23280;SDS011;11809;56.390;-3.266;2023-03-23T05:40:28;1.20;;;0.38;;
23280;SDS011;11809;56.390;-3.266;2023-03-23T05:42:56;1.98;;;0.43;;
23280;SDS011;11809;56.390;-3.266;2023-03-23T05:45:25;0.60;;;0.52;;
23280;SDS011;11809;56.390;-3.266;2023-03-23T05:47:52;0.68;;;0.32;;
23280;SDS011;11809;56.390;-3.266;2023-03-23T05:50:19;1.85;;;0.60;;
23280;SDS011;11809;56.390;-3.266;2023-03-23T05:52:46;1.00;;;0.52;;
23280;SDS011;11809;56.390;-3.266;2023-03-23T05:55:13;1.60;;;0.40;;
23280;SDS011;11809;56.390;-3.266;2023-03-23T05:57:41;1.77;;;0.40;;
23280;SDS011;11809;56.390;-3.266;2023-03-23T06:00:08;1.00;;;0.50;;
23280;SDS011;11809;56.390;-3.266;2023-03-23T06:02:41;2.15;;;0.43;;
23280;SDS011;11809;56.390;-3.266;2023-03-23T06:05:12;2.67;;;0.52;;
23280;SDS011;11809;56.390;-3.266;2023-03-23T06:07:40;1.48;;;0.68;;
23280;SDS011;11809;56.390;-3.266;2023-03-23T06:10:07;5.43;;;0.60;;
23280;SDS011;11809;56.390;-3.266;2023-03-23T06:12:36;5.22;;;0.80;;
23280;SDS011;11809;56.390;-3.266;2023-03-23T06:15:04;2.20;;;0.70;;
23280;SDS011;11809;56.390;-3.266;2023-03-23T06:17:33;2.33;;;0.60;;
23280;SDS011;11809;56.390;-3.266;2023-03-23T06:20:02;4.30;;;0.60;;
23280;SDS011;11809;56.390;-3.266;2023-03-23T06:22:37;3.13;;;0.52;;
23280;SDS011;11809;56.390;-3.266;2023-03-23T06:25:05;1.60;;;0.63;;
23280;SDS011;11809;56.390;-3.266;2023-03-23T06:27:33;2.67;;;0.60;;
23280;SDS011;11809;56.390;-3.266;2023-03-23T06:30:00;28.70;;;2.13;;
23280;SDS011;11809;56.390;-3.266;2023-03-23T06:32:28;14.45;;;1.40;;
23280;SDS011;11809;56.390;-3.266;2023-03-23T06:34:57;12.10;;;1.70;;
23280;SDS011;11809;56.390;-3.266;2023-03-23T06:37:24;9.15;;;1.25;;
23280;SDS011;11809;56.390;-3.266;2023-03-23T06:39:51;7.82;;;1.20;;
23280;SDS011;11809;56.390;-3.266;2023-03-23T06:42:19;10.63;;;1.25;;
23280;SDS011;11809;56.390;-3.266;2023-03-23T06:44:46;11.55;;;1.20;;
23280;SDS011;11809;56.390;-3.266;2023-03-23T06:47:13;3.53;;;1.00;;
23280;SDS011;11809;56.390;-3.266;2023-03-23T06:49:40;5.10;;;1.20;;
23280;SDS011;11809;56.390;-3.266;2023-03-23T06:52:08;9.57;;;1.20;;
23280;SDS011;11809;56.390;-3.266;2023-03-23T06:54:35;10.15;;;1.63;;
23280;SDS011;11809;56.390;-3.266;2023-03-23T06:57:02;6.65;;;1.70;;
23280;SDS011;11809;56.390;-3.266;2023-03-23T06:59:29;9.95;;;1.33;;
23280;SDS011;11809;56.390;-3.266;2023-03-23T07:01:57;23.67;;;2.17;;
23280;SDS011;11809;56.390;-3.266;2023-03-23T07:04:24;2.17;;;0.73;;
23280;SDS011;11809;56.390;-3.266;2023-03-23T07:06:51;3.97;;;0.80;;
23280;SDS011;11809;56.390;-3.266;2023-03-23T07:09:18;11.93;;;1.00;;
23280;SDS011;11809;56.390;-3.266;2023-03-23T07:11:47;15.00;;;1.60;;
23280;SDS011;11809;56.390;-3.266;2023-03-23T07:14:14;4.47;;;0.90;;
23280;SDS011;11809;56.390;-3.266;2023-03-23T07:16:41;5.63;;;1.10;;
23280;SDS011;11809;56.390;-3.266;2023-03-23T07:19:09;6.10;;;1.08;;
23280;SDS011;11809;56.390;-3.266;2023-03-23T07:21:36;5.55;;;1.02;;
23280;SDS011;11809;56.390;-3.266;2023-03-23T07:24:03;11.35;;;1.92;;
23280;SDS011;11809;56.390;-3.266;2023-03-23T07:26:30;6.40;;;1.50;;
23280;SDS011;11809;56.390;-3.266;2023-03-23T07:28:58;12.82;;;1.58;;
23280;SDS011;11809;56.390;-3.266;2023-03-23T07:31:25;19.38;;;2.00;;
23280;SDS011;11809;56.390;-3.266;2023-03-23T07:33:52;16.55;;;1.80;;
23280;SDS011;11809;56.390;-3.266;2023-03-23T07:36:20;34.63;;;2.45;;
23280;SDS011;11809;56.390;-3.266;2023-03-23T07:38:47;21.95;;;1.45;;
23280;SDS011;11809;56.390;-3.266;2023-03-23T07:41:14;10.50;;;1.15;;
23280;SDS011;11809;56.390;-3.266;2023-03-23T07:43:41;12.93;;;1.95;;
23280;SDS011;11809;56.390;-3.266;2023-03-23T07:46:09;12.05;;;1.30;;
23280;SDS011;11809;56.390;-3.266;2023-03-23T07:48:36;11.55;;;1.50;;
23280;SDS011;11809;56.390;-3.266;2023-03-23T07:51:04;37.03;;;3.13;;
23280;SDS011;11809;56.390;-3.266;2023-03-23T07:53:33;41.92;;;3.67;;
23280;SDS011;11809;56.390;-3.266;2023-03-23T07:56:00;56.22;;;4.45;;
23280;SDS011;11809;56.390;-3.266;2023-03-23T07:58:29;22.92;;;2.55;;
23280;SDS011;11809;56.390;-3.266;2023-03-23T08:00:57;24.30;;;2.58;;
23280;SDS011;11809;56.390;-3.266;2023-03-23T08:03:24;5.97;;;1.23;;
23280;SDS011;11809;56.390;-3.266;2023-03-23T08:05:51;6.68;;;1.60;;
23280;SDS011;11809;56.390;-3.266;2023-03-23T08:08:18;5.15;;;1.40;;
23280;SDS011;11809;56.390;-3.266;2023-03-23T08:10:45;7.03;;;1.30;;
23280;SDS011;11809;56.390;-3.266;2023-03-23T08:13:13;10.68;;;1.27;;
23280;SDS011;11809;56.390;-3.266;2023-03-23T08:15:41;5.15;;;1.10;;
23280;SDS011;11809;56.390;-3.266;2023-03-23T08:18:08;5.75;;;1.40;;
23280;SDS011;11809;56.390;-3.266;2023-03-23T08:20:35;4.97;;;1.38;;
23280;SDS011;11809;56.390;-3.266;2023-03-23T08:23:03;7.80;;;1.42;;
23280;SDS011;11809;56.390;-3.266;2023-03-23T08:25:30;3.08;;;1.30;;
23280;SDS011;11809;56.390;-3.266;2023-03-23T08:27:58;4.90;;;1.20;;
23280;SDS011;11809;56.390;-3.266;2023-03-23T08:30:28;4.22;;;1.38;;
23280;SDS011;11809;56.390;-3.266;2023-03-23T08:32:57;7.30;;;1.40;;
23280;SDS011;11809;56.390;-3.266;2023-03-23T08:35:25;5.20;;;1.25;;
23280;SDS011;11809;56.390;-3.266;2023-03-23T08:37:52;8.15;;;1.45;;
23280;SDS011;11809;56.390;-3.266;2023-03-23T08:40:21;5.97;;;1.70;;
23280;SDS011;11809;56.390;-3.266;2023-03-23T08:42:50;5.28;;;1.20;;
23280;SDS011;11809;56.390;-3.266;2023-03-23T08:45:26;3.90;;;0.98;;
23280;SDS011;11809;56.390;-3.266;2023-03-23T08:47:54;5.45;;;1.10;;
23280;SDS011;11809;56.390;-3.266;2023-03-23T08:50:24;16.48;;;1.63;;
23280;SDS011;11809;56.390;-3.266;2023-03-23T08:52:53;8.25;;;1.60;;
23280;SDS011;11809;56.390;-3.266;2023-03-23T08:55:21;69.88;;;4.75;;
23280;SDS011;11809;56.390;-3.266;2023-03-23T08:57:49;199.60;;;11.82;;
23280;SDS011;11809;56.390;-3.266;2023-03-23T09:00:17;61.55;;;4.43;;
23280;SDS011;11809;56.390;-3.266;2023-03-23T09:02:47;59.07;;;3.43;;
23280;SDS011;11809;56.390;-3.266;2023-03-23T09:05:18;41.25;;;4.13;;
23280;SDS011;11809;56.390;-3.266;2023-03-23T09:07:49;48.13;;;3.55;;
23280;SDS011;11809;56.390;-3.266;2023-03-23T09:10:19;38.42;;;2.30;;
23280;SDS011;11809;56.390;-3.266;2023-03-23T09:12:47;15.02;;;1.90;;
23280;SDS011;11809;56.390;-3.266;2023-03-23T09:15:16;48.72;;;3.35;;
23280;SDS011;11809;56.390;-3.266;2023-03-23T09:17:55;13.07;;;1.30;;
23280;SDS011;11809;56.390;-3.266;2023-03-23T09:20:27;18.55;;;1.90;;
23280;SDS011;11809;56.390;-3.266;2023-03-23T09:22:56;50.05;;;3.97;;
23280;SDS011;11809;56.390;-3.266;2023-03-23T09:25:25;14.00;;;1.48;;
23280;SDS011;11809;56.390;-3.266;2023-03-23T09:27:55;9.20;;;1.27;;
23280;SDS011;11809;56.390;-3.266;2023-03-23T09:30:25;14.15;;;1.52;;
23280;SDS011;11809;56.390;-3.266;2023-03-23T09:32:59;21.98;;;1.88;;
23280;SDS011;11809;56.390;-3.266;2023-03-23T09:38:01;13.77;;;1.50;;
23280;SDS011;11809;56.390;-3.266;2023-03-23T09:40:41;9.05;;;1.27;;
23280;SDS011;11809;56.390;-3.266;2023-03-23T09:43:28;18.48;;;1.17;;
23280;SDS011;11809;56.390;-3.266;2023-03-23T09:48:54;7.13;;;1.10;;
23280;SDS011;11809;56.390;-3.266;2023-03-23T09:54:22;9.68;;;1.20;;
23280;SDS011;11809;56.390;-3.266;2023-03-23T09:56:52;9.20;;;1.10;;
23280;SDS011;11809;56.390;-3.266;2023-03-23T10:04:49;9.60;;;0.88;;
23280;SDS011;11809;56.390;-3.266;2023-03-23T10:07:22;8.10;;;1.10;;
23280;SDS011;11809;56.390;-3.266;2023-03-23T10:09:53;5.15;;;0.90;;
23280;SDS011;11809;56.390;-3.266;2023-03-23T10:13:26;5.95;;;0.80;;
23280;SDS011;11809;56.390;-3.266;2023-03-23T10:15:27;2.35;;;0.75;;
23280;SDS011;11809;56.390;-3.266;2023-03-23T10:26:28;5.25;;;0.73;;
23280;SDS011;11809;56.390;-3.266;2023-03-23T10:29:28;12.88;;;1.13;;
23280;SDS011;11809;56.390;-3.266;2023-03-23T10:32:21;9.93;;;0.90;;
23280;SDS011;11809;56.390;-3.266;2023-03-23T10:34:53;6.40;;;0.90;;
23280;SDS011;11809;56.390;-3.266;2023-03-23T10:37:26;3.70;;;0.90;;
23280;SDS011;11809;56.390;-3.266;2023-03-23T10:40:06;10.60;;;1.55;;
23280;SDS011;11809;56.390;-3.266;2023-03-23T10:42:47;10.13;;;1.25;;
23280;SDS011;11809;56.390;-3.266;2023-03-23T10:47:44;11.60;;;1.48;;
23280;SDS011;11809;56.390;-3.266;2023-03-23T10:50:23;52.83;;;3.38;;
23280;SDS011;11809;56.390;-3.266;2023-03-23T10:52:56;25.27;;;1.95;;
23280;SDS011;11809;56.390;-3.266;2023-03-23T10:55:35;16.47;;;2.00;;
23280;SDS011;11809;56.390;-3.266;2023-03-23T11:00:40;14.65;;;1.25;;
23280;SDS011;11809;56.390;-3.266;2023-03-23T11:05:50;17.27;;;1.30;;
23280;SDS011;11809;56.390;-3.266;2023-03-23T11:08:27;12.77;;;1.27;;
23280;SDS011;11809;56.390;-3.266;2023-03-23T11:10:59;12.77;;;1.30;;
23280;SDS011;11809;56.390;-3.266;2023-03-23T11:13:39;50.15;;;2.17;;
23280;SDS011;11809;56.390;-3.266;2023-03-23T11:16:22;26.00;;;1.30;;
23280;SDS011;11809;56.390;-3.266;2023-03-23T11:19:20;17.98;;;1.20;;
23280;SDS011;11809;56.390;-3.266;2023-03-23T11:21:54;16.08;;;1.08;;
23280;SDS011;11809;56.390;-3.266;2023-03-23T11:24:26;8.90;;;1.05;;
23280;SDS011;11809;56.390;-3.266;2023-03-23T11:26:55;6.75;;;0.90;;
23280;SDS011;11809;56.390;-3.266;2023-03-23T11:29:25;7.93;;;0.85;;
23280;SDS011;11809;56.390;-3.266;2023-03-23T11:32:03;5.93;;;0.70;;
23280;SDS011;11809;56.390;-3.266;2023-03-23T11:34:37;4.45;;;0.90;;
23280;SDS011;11809;56.390;-3.266;2023-03-23T11:37:10;3.78;;;0.75;;
23280;SDS011;11809;56.390;-3.266;2023-03-23T11:42:45;2.95;;;0.90;;
23280;SDS011;11809;56.390;-3.266;2023-03-23T11:45:33;2.60;;;0.80;;
23280;SDS011;11809;56.390;-3.266;2023-03-23T11:51:15;13.07;;;1.45;;
23280;SDS011;11809;56.390;-3.266;2023-03-23T11:58:54;58.15;;;3.63;;
23280;SDS011;11809;56.390;-3.266;2023-03-23T12:06:58;22.08;;;1.48;;
23280;SDS011;11809;56.390;-3.266;2023-03-23T12:12:47;43.53;;;2.90;;
23280;SDS011;11809;56.390;-3.266;2023-03-23T12:23:24;16.58;;;1.48;;
23280;SDS011;11809;56.390;-3.266;2023-03-23T12:44:38;35.05;;;2.05;;
23280;SDS011;11809;56.390;-3.266;2023-03-23T12:55:29;8.30;;;1.27;;
23280;SDS011;11809;56.390;-3.266;2023-03-23T12:58:15;8.27;;;1.20;;
23280;SDS011;11809;56.390;-3.266;2023-03-23T13:03:22;4.50;;;0.82;;
23280;SDS011;11809;56.390;-3.266;2023-03-23T13:06:12;4.38;;;0.80;;
23280;SDS011;11809;56.390;-3.266;2023-03-23T13:09:07;2.67;;;0.70;;
23280;SDS011;11809;56.390;-3.266;2023-03-23T13:11:54;1.55;;;0.65;;
23280;SDS011;11809;56.390;-3.266;2023-03-23T13:28:13;7.18;;;1.13;;
23280;SDS011;11809;56.390;-3.266;2023-03-23T13:30:52;3.88;;;0.77;;
23280;SDS011;11809;56.390;-3.266;2023-03-23T13:33:21;4.07;;;0.70;;
23280;SDS011;11809;56.390;-3.266;2023-03-23T13:35:52;13.25;;;1.55;;
23280;SDS011;11809;56.390;-3.266;2023-03-23T13:38:26;6.15;;;1.13;;
23280;SDS011;11809;56.390;-3.266;2023-03-23T13:40:57;4.18;;;1.30;;
23280;SDS011;11809;56.390;-3.266;2023-03-23T13:43:33;22.25;;;4.93;;
23280;SDS011;11809;56.390;-3.266;2023-03-23T13:46:10;19.35;;;7.93;;
23280;SDS011;11809;56.390;-3.266;2023-03-23T13:49:21;56.88;;;20.17;;
23280;SDS011;11809;56.390;-3.266;2023-03-23T13:57:00;75.80;;;34.42;;
23280;SDS011;11809;56.390;-3.266;2023-03-23T13:59:33;62.90;;;28.75;;
23280;SDS011;11809;56.390;-3.266;2023-03-23T14:02:27;57.05;;;25.00;;
23280;SDS011;11809;56.390;-3.266;2023-03-23T14:07:52;39.65;;;9.07;;
23280;SDS011;11809;56.390;-3.266;2023-03-23T14:10:22;35.70;;;16.17;;
23280;SDS011;11809;56.390;-3.266;2023-03-23T14:12:50;34.10;;;17.88;;
23280;SDS011;11809;56.390;-3.266;2023-03-23T14:15:20;53.50;;;23.67;;
23280;SDS011;11809;56.390;-3.266;2023-03-23T14:17:47;29.63;;;13.52;;
23280;SDS011;11809;56.390;-3.266;2023-03-23T14:20:21;16.95;;;7.45;;
23280;SDS011;11809;56.390;-3.266;2023-03-23T14:22:56;20.98;;;6.00;;
23280;SDS011;11809;56.390;-3.266;2023-03-23T14:25:26;23.98;;;7.55;;
23280;SDS011;11809;56.390;-3.266;2023-03-23T14:27:55;22.35;;;6.00;;
23280;SDS011;11809;56.390;-3.266;2023-03-23T14:30:24;13.18;;;5.53;;
23280;SDS011;11809;56.390;-3.266;2023-03-23T14:32:54;14.82;;;4.93;;
23280;SDS011;11809;56.390;-3.266;2023-03-23T14:35:33;18.30;;;4.97;;
23280;SDS011;11809;56.390;-3.266;2023-03-23T14:38:05;17.35;;;3.75;;
23280;SDS011;11809;56.390;-3.266;2023-03-23T14:40:42;32.20;;;4.38;;
23280;SDS011;11809;56.390;-3.266;2023-03-23T14:43:10;28.45;;;4.53;;
23280;SDS011;11809;56.390;-3.266;2023-03-23T14:45:42;17.48;;;3.75;;
23280;SDS011;11809;56.390;-3.266;2023-03-23T14:48:10;22.80;;;3.70;;
23280;SDS011;11809;56.390;-3.266;2023-03-23T14:50:48;18.70;;;2.90;;
23280;SDS011;11809;56.390;-3.266;2023-03-23T14:55:51;6.80;;;2.00;;
23280;SDS011;11809;56.390;-3.266;2023-03-23T14:58:20;5.13;;;1.95;;
23280;SDS011;11809;56.390;-3.266;2023-03-23T15:03:23;6.07;;;1.60;;
23280;SDS011;11809;56.390;-3.266;2023-03-23T15:05:51;6.28;;;1.70;;
23280;SDS011;11809;56.390;-3.266;2023-03-23T15:08:32;8.10;;;1.33;;
23280;SDS011;11809;56.390;-3.266;2023-03-23T15:11:03;5.78;;;1.30;;
23280;SDS011;11809;56.390;-3.266;2023-03-23T15:13:42;2.83;;;1.10;;
23280;SDS011;11809;56.390;-3.266;2023-03-23T15:16:19;4.55;;;1.27;;
23280;SDS011;11809;56.390;-3.266;2023-03-23T15:18:49;3.85;;;1.33;;
23280;SDS011;11809;56.390;-3.266;2023-03-23T15:21:22;5.35;;;1.02;;
23280;SDS011;11809;56.390;-3.266;2023-03-23T15:23:55;1.75;;;0.90;;
23280;SDS011;11809;56.390;-3.266;2023-03-23T15:26:26;2.47;;;0.90;;
23280;SDS011;11809;56.390;-3.266;2023-03-23T15:31:53;3.13;;;1.10;;
23280;SDS011;11809;56.390;-3.266;2023-03-23T15:34:31;4.78;;;1.08;;
23280;SDS011;11809;56.390;-3.266;2023-03-23T15:37:21;3.33;;;0.90;;
23280;SDS011;11809;56.390;-3.266;2023-03-23T15:39:57;10.93;;;1.52;;
23280;SDS011;11809;56.390;-3.266;2023-03-23T15:47:44;9.85;;;1.38;;
23280;SDS011;11809;56.390;-3.266;2023-03-23T15:50:15;7.40;;;1.00;;
23280;SDS011;11809;56.390;-3.266;2023-03-23T15:52:44;8.25;;;1.10;;
23280;SDS011;11809;56.390;-3.266;2023-03-23T15:55:20;7.70;;;1.15;;
23280;SDS011;11809;56.390;-3.266;2023-03-23T15:57:50;17.00;;;2.17;;
23280;SDS011;11809;56.390;-3.266;2023-03-23T16:00:19;8.93;;;1.23;;
23280;SDS011;11809;56.390;-3.266;2023-03-23T16:02:50;23.27;;;2.60;;
23280;SDS011;11809;56.390;-3.266;2023-03-23T16:05:21;17.08;;;2.38;;
23280;SDS011;11809;56.390;-3.266;2023-03-23T16:07:49;20.77;;;2.25;;
23280;SDS011;11809;56.390;-3.266;2023-03-23T16:10:18;20.55;;;1.95;;
23280;SDS011;11809;56.390;-3.266;2023-03-23T16:12:47;38.47;;;3.30;;
23280;SDS011;11809;56.390;-3.266;2023-03-23T16:15:14;25.92;;;3.10;;
23280;SDS011;11809;56.390;-3.266;2023-03-23T16:17:42;41.05;;;3.22;;
23280;SDS011;11809;56.390;-3.266;2023-03-23T16:20:13;32.95;;;3.50;;
23280;SDS011;11809;56.390;-3.266;2023-03-23T16:22:46;43.35;;;3.63;;
23280;SDS011;11809;56.390;-3.266;2023-03-23T16:25:14;13.85;;;2.40;;
23280;SDS011;11809;56.390;-3.266;2023-03-23T16:27:42;20.17;;;2.20;;
23280;SDS011;11809;56.390;-3.266;2023-03-23T16:32:45;56.75;;;2.97;;
23280;SDS011;11809;56.390;-3.266;2023-03-23T16:35:13;35.25;;;3.03;;
23280;SDS011;11809;56.390;-3.266;2023-03-23T16:37:48;20.70;;;1.73;;
23280;SDS011;11809;56.390;-3.266;2023-03-23T16:40:33;24.42;;;2.25;;
23280;SDS011;11809;56.390;-3.266;2023-03-23T16:43:00;24.02;;;1.73;;
23280;SDS011;11809;56.390;-3.266;2023-03-23T16:45:34;20.15;;;1.55;;
23280;SDS011;11809;56.390;-3.266;2023-03-23T16:48:09;33.58;;;2.70;;
23280;SDS011;11809;56.390;-3.266;2023-03-23T16:50:38;37.35;;;2.13;;
23280;SDS011;11809;56.390;-3.266;2023-03-23T16:53:06;25.75;;;2.13;;
23280;SDS011;11809;56.390;-3.266;2023-03-23T16:55:34;25.08;;;2.28;;
23280;SDS011;11809;56.390;-3.266;2023-03-23T16:58:02;33.90;;;2.38;;
23280;SDS011;11809;56.390;-3.266;2023-03-23T17:00:42;22.15;;;2.50;;
23280;SDS011;11809;56.390;-3.266;2023-03-23T17:03:10;23.65;;;2.08;;
23280;SDS011;11809;56.390;-3.266;2023-03-23T17:05:39;20.83;;;1.83;;
23280;SDS011;11809;56.390;-3.266;2023-03-23T17:08:06;18.20;;;1.92;;
23280;SDS011;11809;56.390;-3.266;2023-03-23T17:10:35;9.18;;;1.40;;
23280;SDS011;11809;56.390;-3.266;2023-03-23T17:13:04;11.00;;;1.48;;
23280;SDS011;11809;56.390;-3.266;2023-03-23T17:15:31;9.43;;;1.58;;
23280;SDS011;11809;56.390;-3.266;2023-03-23T17:18:01;8.13;;;1.08;;
23280;SDS011;11809;56.390;-3.266;2023-03-23T17:20:32;8.13;;;1.30;;
23280;SDS011;11809;56.390;-3.266;2023-03-23T17:23:00;6.57;;;1.17;;
23280;SDS011;11809;56.390;-3.266;2023-03-23T17:25:28;6.20;;;0.95;;
23280;SDS011;11809;56.390;-3.266;2023-03-23T17:27:58;12.85;;;1.40;;